Time;durP1;ratioP1;P1;durP2;ratioP2;P2;SDS_P1;SDS_P2;PMS_P1;PMS_P2;Temp;Humidity;BMP_temperature;BMP_pressure;BME280_temperature;BME280_humidity;BME280_pressure;Samples;Min_cycle;Max_cycle;Signal;HPM_P1;HPM_P2
2023/05/21 00:02:04;;;;;;;;;;;14.90;99.90;;;;;;5091821;27;19932;-83
2023/05/21 00:04:33;;;;;;;;;;;14.90;99.90;;;;;;5102959;27;19988;-83
2023/05/21 00:06:58;;;;;;;;;;;15.00;99.90;;;;;;5106153;27;19928;-82
2023/05/21 00:09:24;;;;;;;;;;;14.90;99.90;;;;;;5107806;27;20311;-83
2023/05/21 00:11:49;;;;;;;;;;;14.80;99.90;;;;;;5098309;27;19923;-83
2023/05/21 00:14:15;;;;;;;;;;;14.80;99.90;;;;;;5102229;27;19983;-83
2023/05/21 00:16:41;;;;;;;;;;;14.90;99.90;;;;;;5101843;27;20032;-83
2023/05/21 00:19:06;;;;;;;;;;;14.90;99.90;;;;;;5102412;27;20773;-84
2023/05/21 00:21:32;;;;;;;;;;;14.90;99.90;;;;;;5102877;27;19927;-83
2023/05/21 00:23:58;;;;;;;;;;;14.90;99.90;;;;;;5101287;27;19966;-83
2023/05/21 00:26:24;;;;;;;;;;;14.90;99.90;;;;;;5101274;27;20365;-83
2023/05/21 00:28:49;;;;;;;;;;;14.90;99.90;;;;;;5086167;27;19927;-83
2023/05/21 00:31:16;;;;;;;;;;;14.90;99.90;;;;;;5097563;28;19983;-83
2023/05/21 00:33:41;;;;;;;;;;;14.90;99.90;;;;;;5104350;27;19974;-83
2023/05/21 00:36:07;;;;;;;;;;;14.80;99.90;;;;;;5101099;27;19962;-83
2023/05/21 00:38:33;;;;;;;;;;;14.80;99.90;;;;;;5123341;27;19924;-83
2023/05/21 00:41:02;;;;;;;;;;;14.60;99.90;;;;;;5080617;27;19992;-84
2023/05/21 00:43:27;;;;;;;;;;;14.70;99.90;;;;;;5100836;27;20042;-83
2023/05/21 00:45:55;;;;;;;;;;;14.70;99.90;;;;;;5102623;27;20427;-83
2023/05/21 00:48:21;;;;;;;;;;;14.60;99.90;;;;;;5103293;27;20017;-83
2023/05/21 00:50:48;;;;;;;;;;;14.60;99.90;;;;;;5083017;27;19927;-84
2023/05/21 00:53:15;;;;;;;;;;;14.70;99.90;;;;;;5100573;27;19931;-83
2023/05/21 00:55:41;;;;;;;;;;;14.70;99.90;;;;;;5100647;27;19931;-84
2023/05/21 00:58:07;;;;;;;;;;;14.60;99.90;;;;;;5088625;27;20399;-84
2023/05/21 01:00:33;;;;;;;;;;;14.70;99.90;;;;;;5098129;27;19923;-83
2023/05/21 01:02:59;;;;;;;;;;;14.80;99.90;;;;;;5104740;27;20632;-83
2023/05/21 01:05:26;;;;;;;;;;;14.80;99.90;;;;;;5101789;27;19935;-83
2023/05/21 01:07:51;;;;;;;;;;;14.80;99.90;;;;;;5101927;27;20006;-82
2023/05/21 01:10:17;;;;;;;;;;;14.80;99.90;;;;;;5100334;27;20460;-83
2023/05/21 01:12:43;;;;;;;;;;;14.80;99.90;;;;;;5102125;27;20054;-83
2023/05/21 01:15:09;;;;;;;;;;;14.80;99.90;;;;;;5101923;27;19931;-83
2023/05/21 01:17:35;;;;;;;;;;;14.80;99.90;;;;;;5098646;27;19931;-83
2023/05/21 01:20:08;;;;;;;;;;;14.80;99.90;;;;;;5117432;27;19973;-82
2023/05/21 01:22:34;;;;;;;;;;;14.80;99.90;;;;;;5113374;27;20769;-83
2023/05/21 01:25:01;;;;;;;;;;;14.80;99.90;;;;;;5098027;27;19935;-83
2023/05/21 01:27:27;;;;;;;;;;;14.70;99.90;;;;;;5104453;27;19934;-83
2023/05/21 01:29:52;;;;;;;;;;;14.60;99.90;;;;;;5099963;27;20399;-83
2023/05/21 01:32:18;;;;;;;;;;;14.70;99.90;;;;;;5098407;27;20018;-83
2023/05/21 01:34:43;;;;;;;;;;;14.90;99.90;;;;;;5100526;27;20014;-83
2023/05/21 01:37:28;;;;;;;;;;;14.80;99.90;;;;;;5105316;27;20039;-83
2023/05/21 01:40:01;;;;;;;;;;;14.70;99.90;;;;;;5121495;27;19932;-83
2023/05/21 01:42:28;;;;;;;;;;;14.80;99.90;;;;;;5103165;27;19945;-83
2023/05/21 01:44:54;;;;;;;;;;;14.90;99.90;;;;;;5103746;27;19939;-83
2023/05/21 01:47:22;;;;;;;;;;;14.90;99.90;;;;;;5103326;27;19924;-83
2023/05/21 01:49:48;;;;;;;;;;;14.80;99.90;;;;;;5102184;27;19972;-83
2023/05/21 01:52:14;;;;;;;;;;;14.80;99.90;;;;;;5101522;27;19932;-84
2023/05/21 01:54:40;;;;;;;;;;;14.80;99.90;;;;;;5105189;27;19930;-83
2023/05/21 01:57:05;;;;;;;;;;;14.80;99.90;;;;;;5103033;27;20577;-83
2023/05/21 01:59:32;;;;;;;;;;;14.80;99.90;;;;;;5122455;27;19934;-84
2023/05/21 02:01:57;;;;;;;;;;;14.80;99.90;;;;;;5100928;27;19935;-83
2023/05/21 02:04:23;;;;;;;;;;;14.80;99.90;;;;;;5080980;27;19971;-83
2023/05/21 02:06:48;;;;;;;;;;;14.70;99.90;;;;;;5104500;27;19936;-83
2023/05/21 02:09:14;;;;;;;;;;;14.80;99.90;;;;;;5105080;27;20018;-83
2023/05/21 02:11:39;;;;;;;;;;;14.60;99.90;;;;;;5101656;27;19931;-83
2023/05/21 02:14:06;;;;;;;;;;;14.70;99.90;;;;;;5103806;27;20337;-83
2023/05/21 02:16:32;;;;;;;;;;;14.60;99.90;;;;;;5098637;27;19928;-83
2023/05/21 02:18:59;;;;;;;;;;;14.60;99.90;;;;;;5102330;27;19927;-84
2023/05/21 02:21:25;;;;;;;;;;;14.60;99.90;;;;;;5102252;27;19932;-84
2023/05/21 02:23:50;;;;;;;;;;;14.60;99.90;;;;;;5100242;27;19953;-83
2023/05/21 02:26:16;;;;;;;;;;;14.50;99.90;;;;;;5085318;27;19934;-83
2023/05/21 02:28:41;;;;;;;;;;;14.50;99.90;;;;;;5104210;27;20364;-84
2023/05/21 02:31:07;;;;;;;;;;;14.60;99.90;;;;;;5100495;27;19927;-83
2023/05/21 02:33:33;;;;;;;;;;;14.50;99.90;;;;;;5099498;27;19931;-83
2023/05/21 02:35:58;;;;;;;;;;;14.50;99.90;;;;;;5099023;27;21271;-83
2023/05/21 02:38:24;;;;;;;;;;;14.40;99.90;;;;;;5101126;27;19931;-83
2023/05/21 02:40:50;;;;;;;;;;;14.60;99.90;;;;;;5079594;27;20579;-83
2023/05/21 02:43:16;;;;;;;;;;;14.50;99.90;;;;;;5098093;27;19935;-83
2023/05/21 02:45:42;;;;;;;;;;;14.50;99.90;;;;;;5098213;27;19980;-83
2023/05/21 02:48:07;;;;;;;;;;;14.50;99.90;;;;;;5101407;28;19927;-83
2023/05/21 02:50:33;;;;;;;;;;;14.50;99.90;;;;;;5099978;28;20460;-82
2023/05/21 02:52:58;;;;;;;;;;;14.50;99.90;;;;;;5099912;27;19939;-83
2023/05/21 02:55:24;;;;;;;;;;;14.40;99.90;;;;;;5119009;27;20014;-82
2023/05/21 02:57:50;;;;;;;;;;;14.40;99.90;;;;;;5081661;28;20680;-83
2023/05/21 03:00:16;;;;;;;;;;;14.30;99.90;;;;;;5119587;27;20040;-83
2023/05/21 03:02:41;;;;;;;;;;;14.20;99.90;;;;;;5099292;28;19928;-82
2023/05/21 03:05:07;;;;;;;;;;;14.30;99.90;;;;;;5100324;28;19931;-83
2023/05/21 03:07:32;;;;;;;;;;;14.20;99.90;;;;;;5102277;27;19946;-83
2023/05/21 03:09:58;;;;;;;;;;;14.20;99.90;;;;;;5104698;27;19935;-83
2023/05/21 03:12:24;;;;;;;;;;;14.20;99.90;;;;;;5102144;27;19931;-82
2023/05/21 03:14:50;;;;;;;;;;;14.30;99.90;;;;;;5103112;27;20576;-84
2023/05/21 03:17:16;;;;;;;;;;;14.40;99.90;;;;;;5104628;27;19931;-83
2023/05/21 03:19:41;;;;;;;;;;;14.30;99.90;;;;;;5107172;27;19928;-83
2023/05/21 03:22:07;;;;;;;;;;;14.30;99.90;;;;;;5107694;27;19935;-83
2023/05/21 03:24:32;;;;;;;;;;;14.40;99.90;;;;;;5108030;27;19927;-84
2023/05/21 03:27:00;;;;;;;;;;;14.20;99.90;;;;;;5106284;27;19945;-84
2023/05/21 03:29:26;;;;;;;;;;;14.30;99.90;;;;;;5104192;27;20046;-83
2023/05/21 03:31:54;;;;;;;;;;;14.30;99.90;;;;;;5085770;27;19939;-84
2023/05/21 03:34:20;;;;;;;;;;;14.30;99.90;;;;;;5104111;27;19928;-83
2023/05/21 03:36:46;;;;;;;;;;;14.30;99.90;;;;;;5108842;27;19957;-84
2023/05/21 03:39:12;;;;;;;;;;;14.30;99.90;;;;;;5087640;27;20094;-84
2023/05/21 03:41:37;;;;;;;;;;;14.40;99.90;;;;;;5104411;27;20376;-84
2023/05/21 03:44:03;;;;;;;;;;;14.30;99.90;;;;;;5104668;27;19931;-83
2023/05/21 03:46:29;;;;;;;;;;;14.30;99.90;;;;;;5091421;27;19927;-83
2023/05/21 03:48:54;;;;;;;;;;;14.30;99.90;;;;;;5102840;27;19935;-83
2023/05/21 03:51:20;;;;;;;;;;;14.30;99.90;;;;;;5108958;27;20008;-83
2023/05/21 03:53:45;;;;;;;;;;;14.40;99.90;;;;;;5099996;27;19928;-83
2023/05/21 03:56:11;;;;;;;;;;;14.50;99.90;;;;;;5105293;27;19927;-83
2023/05/21 03:58:37;;;;;;;;;;;14.40;99.90;;;;;;5104458;27;19927;-84
2023/05/21 04:01:03;;;;;;;;;;;14.40;99.90;;;;;;5101573;27;20455;-84
2023/05/21 04:03:29;;;;;;;;;;;14.40;99.90;;;;;;5103294;27;19933;-83
2023/05/21 04:05:55;;;;;;;;;;;14.40;99.90;;;;;;5104153;27;20399;-84
2023/05/21 04:08:20;;;;;;;;;;;14.30;99.90;;;;;;5119691;27;19935;-83
2023/05/21 04:10:46;;;;;;;;;;;14.40;99.90;;;;;;5089351;27;19934;-84
2023/05/21 04:13:12;;;;;;;;;;;14.30;99.90;;;;;;5102397;27;19928;-83
2023/05/21 04:15:37;;;;;;;;;;;14.40;99.90;;;;;;5105900;27;19930;-83
2023/05/21 04:18:03;;;;;;;;;;;14.30;99.90;;;;;;5105887;27;21718;-83
2023/05/21 04:20:29;;;;;;;;;;;14.40;99.90;;;;;;5106912;27;19965;-83
2023/05/21 04:22:55;;;;;;;;;;;14.50;99.90;;;;;;5099625;28;19967;-83
2023/05/21 04:25:22;;;;;;;;;;;14.50;99.90;;;;;;5104613;27;20347;-83
2023/05/21 04:27:48;;;;;;;;;;;14.40;99.90;;;;;;5091499;27;19930;-83
2023/05/21 04:30:14;;;;;;;;;;;14.50;99.90;;;;;;5104945;27;19927;-83
2023/05/21 04:32:39;;;;;;;;;;;14.60;99.90;;;;;;5103227;27;20374;-83
2023/05/21 04:35:05;;;;;;;;;;;14.50;99.90;;;;;;5103738;27;19924;-83
2023/05/21 04:37:33;;;;;;;;;;;14.60;99.90;;;;;;5107657;27;19972;-82
2023/05/21 04:40:00;;;;;;;;;;;14.60;99.90;;;;;;5104413;27;19938;-83
2023/05/21 04:42:26;;;;;;;;;;;14.60;99.90;;;;;;5109265;27;19977;-82
2023/05/21 04:44:54;;;;;;;;;;;14.60;99.90;;;;;;5103935;27;20010;-83
2023/05/21 04:47:19;;;;;;;;;;;14.50;99.90;;;;;;5105619;27;19967;-82
2023/05/21 04:49:45;;;;;;;;;;;14.40;99.90;;;;;;5104693;27;19963;-82
2023/05/21 04:52:11;;;;;;;;;;;14.50;99.90;;;;;;5104711;27;20447;-82
2023/05/21 04:54:37;;;;;;;;;;;14.40;99.90;;;;;;5106615;27;20406;-83
2023/05/21 04:57:03;;;;;;;;;;;14.50;99.90;;;;;;5085850;27;20038;-83
2023/05/21 04:59:29;;;;;;;;;;;14.40;99.90;;;;;;5106153;27;20003;-82
2023/05/21 05:01:55;;;;;;;;;;;14.60;99.90;;;;;;5098334;27;20014;-82
2023/05/21 05:04:20;;;;;;;;;;;14.60;99.90;;;;;;5099699;27;19928;-83
2023/05/21 05:06:46;;;;;;;;;;;14.50;99.90;;;;;;5109336;27;19927;-82
2023/05/21 05:09:11;;;;;;;;;;;14.50;99.90;;;;;;5106441;27;19934;-83
2023/05/21 05:11:37;;;;;;;;;;;14.50;99.90;;;;;;5098367;27;20436;-84
2023/05/21 05:14:02;;;;;;;;;;;14.60;99.90;;;;;;5098840;27;20015;-83
2023/05/21 05:16:28;;;;;;;;;;;14.70;99.90;;;;;;5104144;27;20022;-82
2023/05/21 05:18:54;;;;;;;;;;;14.60;99.90;;;;;;5103730;27;20072;-83
2023/05/21 05:21:20;;;;;;;;;;;14.60;99.90;;;;;;5102395;27;19934;-82
2023/05/21 05:23:46;;;;;;;;;;;14.50;99.90;;;;;;5101074;27;19928;-84
2023/05/21 05:26:11;;;;;;;;;;;14.60;99.90;;;;;;5103234;27;19923;-83
2023/05/21 05:28:37;;;;;;;;;;;14.50;99.90;;;;;;5121778;27;19927;-82
2023/05/21 05:31:03;;;;;;;;;;;14.50;99.90;;;;;;5100540;27;20077;-82
2023/05/21 05:33:28;;;;;;;;;;;14.30;99.90;;;;;;5103992;27;20010;-83
2023/05/21 05:35:54;;;;;;;;;;;14.40;99.90;;;;;;5103269;27;20030;-83
2023/05/21 05:38:19;;;;;;;;;;;14.60;99.90;;;;;;5102777;27;20088;-83
2023/05/21 05:40:45;;;;;;;;;;;14.60;99.90;;;;;;5106025;27;19934;-84
2023/05/21 05:43:10;;;;;;;;;;;14.60;99.90;;;;;;5105264;27;19989;-83
2023/05/21 05:45:36;;;;;;;;;;;14.70;99.90;;;;;;5104930;27;20307;-83
2023/05/21 05:48:01;;;;;;;;;;;14.80;99.90;;;;;;5104938;27;20597;-83
2023/05/21 05:50:27;;;;;;;;;;;14.80;99.90;;;;;;5104117;27;19976;-82
2023/05/21 05:52:52;;;;;;;;;;;14.70;99.90;;;;;;5106098;27;19927;-84
2023/05/21 05:55:18;;;;;;;;;;;14.70;99.90;;;;;;5097687;27;19957;-83
2023/05/21 05:57:44;;;;;;;;;;;14.80;99.90;;;;;;5116174;27;19931;-82
2023/05/21 06:00:10;;;;;;;;;;;14.90;99.90;;;;;;5096020;27;19934;-83
2023/05/21 06:02:36;;;;;;;;;;;14.90;99.90;;;;;;5099136;27;20302;-83
2023/05/21 06:05:02;;;;;;;;;;;15.00;99.90;;;;;;5101397;27;19931;-84
2023/05/21 06:07:27;;;;;;;;;;;15.00;99.90;;;;;;5104459;27;19927;-83
2023/05/21 06:09:53;;;;;;;;;;;15.00;99.90;;;;;;5102143;27;20017;-83
2023/05/21 06:12:18;;;;;;;;;;;15.20;99.90;;;;;;5104878;27;20387;-83
2023/05/21 06:14:46;;;;;;;;;;;15.20;99.90;;;;;;5103023;27;19927;-83
2023/05/21 06:17:11;;;;;;;;;;;15.10;99.90;;;;;;5101754;27;19928;-83
2023/05/21 06:19:37;;;;;;;;;;;15.20;99.90;;;;;;5102447;27;19931;-84
2023/05/21 06:22:03;;;;;;;;;;;15.20;99.90;;;;;;5104738;27;19950;-84
2023/05/21 06:24:29;;;;;;;;;;;15.20;99.90;;;;;;5102154;27;19978;-84
2023/05/21 06:26:54;;;;;;;;;;;15.30;99.90;;;;;;5101169;27;19973;-84
2023/05/21 06:29:20;;;;;;;;;;;15.40;99.90;;;;;;5103891;27;20346;-85
2023/05/21 06:31:46;;;;;;;;;;;15.50;99.90;;;;;;5102748;27;19931;-84
2023/05/21 06:34:11;;;;;;;;;;;15.60;99.90;;;;;;5102903;28;19931;-83
2023/05/21 06:36:37;;;;;;;;;;;15.40;99.90;;;;;;5101018;27;21177;-83
2023/05/21 06:39:02;;;;;;;;;;;15.50;99.90;;;;;;5102713;27;19935;-83
2023/05/21 06:41:28;;;;;;;;;;;15.50;99.90;;;;;;5102923;27;19928;-83
2023/05/21 06:43:53;;;;;;;;;;;15.40;99.90;;;;;;5101092;27;19935;-82
2023/05/21 06:46:19;;;;;;;;;;;15.70;99.90;;;;;;5104046;28;19924;-84
2023/05/21 06:48:45;;;;;;;;;;;15.60;99.90;;;;;;5100290;28;19934;-83
2023/05/21 06:51:11;;;;;;;;;;;15.60;99.90;;;;;;5100456;28;19934;-85
2023/05/21 06:53:36;;;;;;;;;;;15.40;99.90;;;;;;5103829;28;19927;-84
2023/05/21 06:56:02;;;;;;;;;;;15.50;99.90;;;;;;5085917;28;19934;-83
2023/05/21 06:58:30;;;;;;;;;;;15.60;99.90;;;;;;5120309;27;20300;-83
2023/05/21 07:00:58;;;;;;;;;;;15.80;99.90;;;;;;5101688;28;19927;-83
2023/05/21 07:03:24;;;;;;;;;;;15.80;99.90;;;;;;5104980;28;20785;-82
2023/05/21 07:05:50;;;;;;;;;;;15.70;99.90;;;;;;5105503;28;19931;-82
2023/05/21 07:08:15;;;;;;;;;;;15.90;99.90;;;;;;5100735;28;19932;-85
2023/05/21 07:10:41;;;;;;;;;;;15.90;99.90;;;;;;5104104;28;19934;-83
2023/05/21 07:13:06;;;;;;;;;;;16.00;99.90;;;;;;5103505;28;19927;-83
2023/05/21 07:15:32;;;;;;;;;;;15.80;99.90;;;;;;5099933;28;19927;-85
2023/05/21 07:17:57;;;;;;;;;;;15.80;99.90;;;;;;5096836;28;19932;-85
2023/05/21 07:20:23;;;;;;;;;;;16.00;99.90;;;;;;5097035;27;20563;-85
2023/05/21 07:22:48;;;;;;;;;;;16.10;99.90;;;;;;5101682;28;19931;-84
2023/05/21 07:25:14;;;;;;;;;;;16.10;99.90;;;;;;5105075;28;20392;-84
2023/05/21 07:27:43;;;;;;;;;;;16.20;99.90;;;;;;5104815;28;19927;-83
2023/05/21 07:30:09;;;;;;;;;;;16.20;99.90;;;;;;5105209;28;20445;-85
2023/05/21 07:32:34;;;;;;;;;;;16.10;99.90;;;;;;5102226;28;19935;-83
2023/05/21 07:35:03;;;;;;;;;;;16.20;99.90;;;;;;5103889;28;20006;-85
2023/05/21 07:37:28;;;;;;;;;;;16.50;99.90;;;;;;5081481;28;19928;-84
2023/05/21 07:40:00;;;;;;;;;;;16.60;99.90;;;;;;5106620;28;19934;-83
2023/05/21 07:42:26;;;;;;;;;;;16.80;99.90;;;;;;5100017;28;19954;-84
2023/05/21 07:44:51;;;;;;;;;;;16.70;99.90;;;;;;5104844;28;20315;-83
2023/05/21 07:47:17;;;;;;;;;;;16.80;99.90;;;;;;5102719;28;20016;-84
2023/05/21 07:49:43;;;;;;;;;;;17.30;99.90;;;;;;5105747;28;19980;-83
2023/05/21 07:52:08;;;;;;;;;;;17.40;99.90;;;;;;5100259;28;19932;-83
2023/05/21 07:54:34;;;;;;;;;;;17.70;99.90;;;;;;5096328;27;20065;-86
2023/05/21 07:57:01;;;;;;;;;;;17.70;99.90;;;;;;5101500;27;20059;-84
2023/05/21 07:59:27;;;;;;;;;;;17.70;99.90;;;;;;5101309;27;20414;-84
2023/05/21 08:01:52;;;;;;;;;;;18.00;99.90;;;;;;5099417;27;19939;-85
2023/05/21 08:04:18;;;;;;;;;;;18.10;99.90;;;;;;5099111;27;19931;-84
2023/05/21 08:06:44;;;;;;;;;;;18.60;99.90;;;;;;5105075;27;19974;-85
2023/05/21 08:09:11;;;;;;;;;;;18.90;99.90;;;;;;5082758;27;19932;-87
2023/05/21 08:11:36;;;;;;;;;;;18.80;99.90;;;;;;5099688;27;20343;-84
2023/05/21 08:14:02;;;;;;;;;;;19.20;99.90;;;;;;5105215;27;19935;-83
2023/05/21 08:16:27;;;;;;;;;;;19.40;99.90;;;;;;5102261;27;20018;-93
2023/05/21 08:18:53;;;;;;;;;;;19.40;99.90;;;;;;5101640;27;19931;-85
2023/05/21 08:21:18;;;;;;;;;;;19.80;99.90;;;;;;5101911;27;19927;-86
2023/05/21 08:23:44;;;;;;;;;;;19.50;99.90;;;;;;5101178;27;19932;-85
2023/05/21 08:26:10;;;;;;;;;;;19.80;99.90;;;;;;5106329;27;20495;-86
2023/05/21 08:28:39;;;;;;;;;;;20.60;99.90;;;;;;5107233;27;19932;-86
2023/05/21 08:31:04;;;;;;;;;;;20.20;99.90;;;;;;5104543;27;19931;-85
2023/05/21 08:33:30;;;;;;;;;;;20.50;99.90;;;;;;5102063;27;19935;-87
2023/05/21 08:35:55;;;;;;;;;;;20.50;99.90;;;;;;5107048;27;19927;-86
2023/05/21 08:38:21;;;;;;;;;;;20.50;99.90;;;;;;5101300;27;19979;-85
2023/05/21 08:40:47;;;;;;;;;;;20.60;99.90;;;;;;5105831;27;19949;-86
2023/05/21 08:43:15;;;;;;;;;;;20.20;99.90;;;;;;5102907;27;19952;-86
2023/05/21 08:45:41;;;;;;;;;;;19.80;99.90;;;;;;5102535;27;19927;-86
2023/05/21 08:48:09;;;;;;;;;;;20.70;99.90;;;;;;5104770;27;19927;-86
2023/05/21 08:50:34;;;;;;;;;;;20.70;99.90;;;;;;5102562;27;20277;-87
2023/05/21 08:53:00;;;;;;;;;;;20.60;99.90;;;;;;5099731;27;19931;-90
2023/05/21 08:55:26;;;;;;;;;;;20.60;99.90;;;;;;5095111;27;19996;-85
2023/05/21 08:57:52;;;;;;;;;;;20.80;99.90;;;;;;5097770;27;19939;-86
2023/05/21 09:00:19;;;;;;;;;;;20.60;99.90;;;;;;5088043;27;19934;-87
2023/05/21 09:02:45;;;;;;;;;;;20.90;99.90;;;;;;5100843;27;20003;-85
2023/05/21 09:05:12;;;;;;;;;;;20.50;99.90;;;;;;5097951;27;19924;-87
2023/05/21 09:07:49;;;;;;;;;;;21.00;99.90;;;;;;5102877;27;19928;-85
2023/05/21 09:10:17;;;;;;;;;;;20.50;99.90;;;;;;5095189;27;19931;-85
2023/05/21 09:12:43;;;;;;;;;;;20.70;99.90;;;;;;5096197;27;20022;-87
2023/05/21 09:15:08;;;;;;;;;;;20.90;99.90;;;;;;5087430;27;19931;-85
2023/05/21 09:17:34;;;;;;;;;;;21.00;99.90;;;;;;5090998;27;19932;-88
2023/05/21 09:20:08;;;;;;;;;;;21.00;99.90;;;;;;5078188;27;19932;-87
2023/05/21 09:22:34;;;;;;;;;;;20.50;99.90;;;;;;5074748;27;19935;-87
2023/05/21 09:25:03;;;;;;;;;;;20.80;99.90;;;;;;5085840;27;19935;-86
2023/05/21 09:27:28;;;;;;;;;;;20.20;99.90;;;;;;5089128;27;20687;-87
2023/05/21 09:29:54;;;;;;;;;;;19.80;99.90;;;;;;5074307;27;19931;-86
2023/05/21 09:32:20;;;;;;;;;;;19.90;99.90;;;;;;5089578;27;20546;-87
2023/05/21 09:34:46;;;;;;;;;;;20.10;99.90;;;;;;5091460;27;19931;-86
2023/05/21 09:37:12;;;;;;;;;;;20.60;99.90;;;;;;5095501;27;20523;-86
2023/05/21 09:39:38;;;;;;;;;;;20.40;99.90;;;;;;5099273;27;19980;-89
2023/05/21 09:42:04;;;;;;;;;;;21.00;99.90;;;;;;5082362;27;19934;-88
2023/05/21 09:44:30;;;;;;;;;;;20.80;99.90;;;;;;5098288;27;19927;-87
2023/05/21 09:46:59;;;;;;;;;;;20.80;99.90;;;;;;5090290;27;19928;-84
2023/05/21 09:49:26;;;;;;;;;;;20.80;99.90;;;;;;5095177;27;20395;-89
2023/05/21 09:51:57;;;;;;;;;;;21.20;99.90;;;;;;5092297;27;19931;-87
2023/05/21 09:54:29;;;;;;;;;;;21.40;99.90;;;;;;5094845;27;19985;-87
2023/05/21 09:56:55;;;;;;;;;;;21.40;99.90;;;;;;5092383;27;19932;-87
2023/05/21 09:59:21;;;;;;;;;;;21.40;99.90;;;;;;5092995;27;20404;-85
2023/05/21 10:01:48;;;;;;;;;;;21.40;99.90;;;;;;5092648;28;20685;-86
2023/05/21 10:04:14;;;;;;;;;;;21.60;99.90;;;;;;5093035;27;21533;-83
2023/05/21 10:06:41;;;;;;;;;;;21.90;99.90;;;;;;5099915;27;19927;-91
2023/05/21 10:09:10;;;;;;;;;;;22.30;99.90;;;;;;5077603;27;20054;-86
2023/05/21 10:11:36;;;;;;;;;;;22.40;99.90;;;;;;5095852;27;20018;-87
2023/05/21 10:14:08;;;;;;;;;;;22.10;99.90;;;;;;5113168;27;20322;-86
2023/05/21 10:16:34;;;;;;;;;;;22.40;99.90;;;;;;5097000;27;20322;-86
2023/05/21 10:19:00;;;;;;;;;;;22.50;99.90;;;;;;5095646;27;19953;-86
2023/05/21 10:21:26;;;;;;;;;;;22.00;99.90;;;;;;5099586;27;20295;-85
2023/05/21 10:23:52;;;;;;;;;;;22.50;99.90;;;;;;5096213;27;19988;-87
2023/05/21 10:26:19;;;;;;;;;;;22.70;99.90;;;;;;5097676;27;20399;-88
2023/05/21 10:28:45;;;;;;;;;;;22.70;99.90;;;;;;5101333;27;20030;-89
2023/05/21 10:31:11;;;;;;;;;;;21.50;99.90;;;;;;5081198;27;20014;-87
2023/05/21 10:33:37;;;;;;;;;;;21.80;99.90;;;;;;5097326;27;20362;-86
2023/05/21 10:36:03;;;;;;;;;;;22.30;99.90;;;;;;5097543;27;20358;-87
2023/05/21 10:38:29;;;;;;;;;;;22.60;99.90;;;;;;5099439;27;20014;-84
2023/05/21 10:40:54;;;;;;;;;;;22.10;99.90;;;;;;5084644;27;19938;-85
2023/05/21 10:43:26;;;;;;;;;;;22.30;99.90;;;;;;5081797;27;19928;-90
2023/05/21 10:45:52;;;;;;;;;;;22.10;99.90;;;;;;5100677;27;19931;-85
2023/05/21 10:48:34;;;;;;;;;;;22.40;99.90;;;;;;5096127;28;19923;-85
2023/05/21 10:51:12;;;;;;;;;;;22.30;99.90;;;;;;5099927;28;19927;-84
2023/05/21 10:53:56;;;;;;;;;;;22.10;99.90;;;;;;5102305;28;19927;-85
2023/05/21 10:56:23;;;;;;;;;;;21.80;99.90;;;;;;5095656;28;19950;-85
2023/05/21 10:58:51;;;;;;;;;;;22.40;99.90;;;;;;5098467;28;20306;-84
2023/05/21 11:01:18;;;;;;;;;;;23.00;99.90;;;;;;5100502;28;19939;-86
2023/05/21 11:03:45;;;;;;;;;;;23.30;99.90;;;;;;5098990;28;19982;-85
2023/05/21 11:06:10;;;;;;;;;;;23.00;99.90;;;;;;5085093;28;19932;-87
2023/05/21 11:08:37;;;;;;;;;;;23.00;99.90;;;;;;5098469;28;20022;-86
2023/05/21 11:11:03;;;;;;;;;;;23.30;99.90;;;;;;5102679;28;19931;-86
2023/05/21 11:13:47;;;;;;;;;;;22.70;99.90;;;;;;5082298;28;19927;-86
2023/05/21 11:16:13;;;;;;;;;;;23.10;99.90;;;;;;5101867;28;20011;-87
2023/05/21 11:18:39;;;;;;;;;;;23.60;99.90;;;;;;5096809;28;19928;-85
2023/05/21 11:21:08;;;;;;;;;;;22.80;99.90;;;;;;5094934;27;19932;-86
2023/05/21 11:23:49;;;;;;;;;;;22.50;99.90;;;;;;5103391;28;20041;-86
2023/05/21 11:26:20;;;;;;;;;;;22.60;99.90;;;;;;5098777;28;19967;-86
2023/05/21 11:28:51;;;;;;;;;;;23.70;99.90;;;;;;5086666;27;19928;-88
2023/05/21 11:31:26;;;;;;;;;;;23.80;99.90;;;;;;5088015;27;19924;-87
2023/05/21 11:34:15;;;;;;;;;;;23.00;99.90;;;;;;5090288;27;19928;-87
2023/05/21 11:36:45;;;;;;;;;;;23.80;99.90;;;;;;5106630;27;19928;-86
2023/05/21 11:39:12;;;;;;;;;;;22.80;99.90;;;;;;5124511;27;19942;-85
2023/05/21 11:41:51;;;;;;;;;;;23.40;99.90;;;;;;5124036;27;19924;-87
2023/05/21 11:44:16;;;;;;;;;;;22.90;99.90;;;;;;5121511;27;19927;-87
2023/05/21 11:46:42;;;;;;;;;;;23.10;99.90;;;;;;5100932;27;20372;-88
2023/05/21 11:49:08;;;;;;;;;;;23.40;99.90;;;;;;5106047;27;20087;-87
2023/05/21 11:51:35;;;;;;;;;;;23.00;99.90;;;;;;5116412;27;19935;-87
2023/05/21 11:54:01;;;;;;;;;;;23.00;99.90;;;;;;5108254;27;19972;-89
2023/05/21 11:56:27;;;;;;;;;;;23.10;99.90;;;;;;5103730;27;19924;-88
2023/05/21 11:58:59;;;;;;;;;;;23.10;99.90;;;;;;5106377;27;19931;-86
2023/05/21 12:01:25;;;;;;;;;;;22.60;99.90;;;;;;5124419;27;19938;-87
2023/05/21 12:03:53;;;;;;;;;;;23.20;99.90;;;;;;5122527;27;19932;-88
2023/05/21 12:06:25;;;;;;;;;;;23.80;99.90;;;;;;5105668;27;19954;-89
2023/05/21 12:08:51;;;;;;;;;;;23.30;99.90;;;;;;5120920;27;19927;-87
2023/05/21 12:11:16;;;;;;;;;;;23.20;99.90;;;;;;5117973;27;20452;-89
2023/05/21 12:13:42;;;;;;;;;;;23.00;99.90;;;;;;5100767;27;20027;-88
2023/05/21 12:16:08;;;;;;;;;;;23.40;99.90;;;;;;5106546;27;20368;-87
2023/05/21 12:18:35;;;;;;;;;;;23.60;99.90;;;;;;5121987;27;20292;-88
2023/05/21 12:21:01;;;;;;;;;;;23.70;99.90;;;;;;5106488;27;19938;-88
2023/05/21 12:23:26;;;;;;;;;;;23.20;99.90;;;;;;5106908;27;19924;-84
2023/05/21 12:25:55;;;;;;;;;;;23.60;99.90;;;;;;5120012;27;19924;-88
2023/05/21 12:28:21;;;;;;;;;;;22.80;99.90;;;;;;5121371;27;22119;-87
2023/05/21 12:30:47;;;;;;;;;;;23.20;99.90;;;;;;5121101;27;19928;-87
2023/05/21 12:33:13;;;;;;;;;;;24.20;99.90;;;;;;5125042;27;21374;-89
2023/05/21 12:35:38;;;;;;;;;;;24.20;99.90;;;;;;5123036;27;19927;-88
2023/05/21 12:38:05;;;;;;;;;;;23.50;99.90;;;;;;5105484;27;19934;-87
2023/05/21 12:40:37;;;;;;;;;;;23.80;99.90;;;;;;5101809;27;19996;-86
2023/05/21 12:43:03;;;;;;;;;;;23.50;99.90;;;;;;5097470;27;20012;-87
2023/05/21 12:45:29;;;;;;;;;;;23.30;99.90;;;;;;5100375;27;20019;-87
2023/05/21 12:47:55;;;;;;;;;;;22.60;99.90;;;;;;5122439;27;20125;-87
2023/05/21 12:50:21;;;;;;;;;;;23.40;99.90;;;;;;5100317;27;20035;-84
2023/05/21 12:52:47;;;;;;;;;;;23.50;99.90;;;;;;5119633;27;20436;-84
2023/05/21 12:55:13;;;;;;;;;;;23.00;99.90;;;;;;5119164;27;19931;-84
2023/05/21 12:57:39;;;;;;;;;;;23.40;99.90;;;;;;5121101;27;19927;-85
2023/05/21 13:00:05;;;;;;;;;;;23.20;99.90;;;;;;5118847;27;20380;-85
2023/05/21 13:02:33;;;;;;;;;;;23.60;99.90;;;;;;5114629;27;19932;-88
2023/05/21 13:04:59;;;;;;;;;;;23.10;99.90;;;;;;5119254;27;20007;-85
2023/05/21 13:07:26;;;;;;;;;;;23.60;99.90;;;;;;5118992;27;19935;-86
2023/05/21 13:09:52;;;;;;;;;;;23.40;99.90;;;;;;5118095;27;19990;-85
2023/05/21 13:12:19;;;;;;;;;;;23.20;99.90;;;;;;5123051;27;19931;-90
2023/05/21 13:14:44;;;;;;;;;;;24.30;99.90;;;;;;5121236;27;19927;-86
2023/05/21 13:17:10;;;;;;;;;;;24.50;99.90;;;;;;5123623;27;20429;-89
2023/05/21 13:19:36;;;;;;;;;;;25.00;99.90;;;;;;5101767;27;19927;-86
2023/05/21 13:22:02;;;;;;;;;;;25.00;99.90;;;;;;5124300;27;19931;-87
2023/05/21 13:24:27;;;;;;;;;;;25.20;99.90;;;;;;5121274;27;19924;-87
2023/05/21 13:26:53;;;;;;;;;;;24.30;99.90;;;;;;5119053;27;19939;-82
2023/05/21 13:29:18;;;;;;;;;;;24.20;99.90;;;;;;5119072;27;19928;-85
2023/05/21 13:31:44;;;;;;;;;;;24.10;99.90;;;;;;5097666;27;20396;-87
2023/05/21 13:34:10;;;;;;;;;;;24.20;99.90;;;;;;5100035;27;20368;-86
2023/05/21 13:36:36;;;;;;;;;;;24.20;99.90;;;;;;5119532;27;19975;-87
2023/05/21 13:39:02;;;;;;;;;;;24.90;99.90;;;;;;5118404;27;19923;-88
2023/05/21 13:41:27;;;;;;;;;;;24.80;99.90;;;;;;5119177;27;19927;-86
2023/05/21 13:43:53;;;;;;;;;;;25.40;99.90;;;;;;5103234;27;19959;-86
2023/05/21 13:46:18;;;;;;;;;;;24.70;99.90;;;;;;5115368;27;19931;-88
2023/05/21 13:48:44;;;;;;;;;;;24.60;99.90;;;;;;5119367;27;19927;-89
2023/05/21 13:51:09;;;;;;;;;;;24.60;99.90;;;;;;5112689;27;20623;-87
2023/05/21 13:53:35;;;;;;;;;;;24.40;99.90;;;;;;5119483;27;19927;-87
2023/05/21 13:56:00;;;;;;;;;;;24.40;99.90;;;;;;5123268;27;19938;-90
2023/05/21 13:58:26;;;;;;;;;;;25.00;99.90;;;;;;5123133;27;19934;-90
2023/05/21 14:00:55;;;;;;;;;;;25.30;99.90;;;;;;5122153;27;19927;-86
2023/05/21 14:03:20;;;;;;;;;;;24.30;99.90;;;;;;5118800;27;19950;-89
2023/05/21 14:05:48;;;;;;;;;;;24.90;99.90;;;;;;5118682;27;20064;-88
2023/05/21 14:08:18;;;;;;;;;;;25.60;99.90;;;;;;5101194;27;19986;-88
2023/05/21 14:10:44;;;;;;;;;;;24.30;99.90;;;;;;5121584;27;19930;-88
2023/05/21 14:13:10;;;;;;;;;;;24.60;99.90;;;;;;5104167;27;19927;-88